createdAt,value
2018-08-25T00:00:04.961Z,1.90
2018-08-25T00:04:07.517Z,1.67
2018-08-25T00:08:10.077Z,1.63
2018-08-25T00:12:13.005Z,2.00
2018-08-25T00:16:15.585Z,1.77
2018-08-25T00:20:18.223Z,2.30
2018-08-25T00:24:20.870Z,1.90
2018-08-25T00:28:23.441Z,1.87
2018-08-25T00:32:26.006Z,2.23
2018-08-25T00:36:28.580Z,2.17
2018-08-25T00:40:31.150Z,2.40
2018-08-25T00:44:33.826Z,1.90
2018-08-25T00:48:36.446Z,1.60
2018-08-25T00:52:39.094Z,1.60
2018-08-25T00:56:41.705Z,1.67
2018-08-25T01:00:44.363Z,1.60
2018-08-25T01:04:53.733Z,1.93
2018-08-25T01:08:56.325Z,1.50
2018-08-25T01:12:59.017Z,1.30
2018-08-25T01:17:01.735Z,2.17
2018-08-25T01:21:04.419Z,2.37
2018-08-25T01:29:16.423Z,1.63
2018-08-25T01:33:18.972Z,1.70
2018-08-25T01:37:21.558Z,1.60
2018-08-25T01:41:24.261Z,2.13
2018-08-25T01:45:26.832Z,2.27
2018-08-25T01:49:29.733Z,1.90
2018-08-25T01:53:32.318Z,2.30
2018-08-25T01:57:34.837Z,2.03
2018-08-25T02:01:37.461Z,2.43
2018-08-25T02:05:39.991Z,2.20
2018-08-25T02:09:42.588Z,1.93
2018-08-25T02:13:45.210Z,1.83
2018-08-25T02:17:47.751Z,2.07
2018-08-25T02:21:50.336Z,2.13
2018-08-25T02:25:52.862Z,1.50
2018-08-25T02:29:55.501Z,1.80
2018-08-25T02:33:58.090Z,1.23
2018-08-25T02:38:00.609Z,1.50
2018-08-25T02:42:03.243Z,1.23
2018-08-25T02:46:06.074Z,1.70
2018-08-25T02:50:08.678Z,1.63
2018-08-25T02:54:11.247Z,1.23
2018-08-25T02:58:13.837Z,1.43
2018-08-25T03:02:16.424Z,1.20
2018-08-25T03:06:18.956Z,1.50
2018-08-25T03:10:21.540Z,1.20
2018-08-25T03:14:24.083Z,1.50
2018-08-25T03:18:26.627Z,1.53
2018-08-25T03:22:29.219Z,2.47
2018-08-25T03:26:31.905Z,1.20
2018-08-25T03:30:34.483Z,1.10
2018-08-25T03:34:37.046Z,0.80
2018-08-25T03:38:39.636Z,1.40
2018-08-25T03:42:42.225Z,1.90
2018-08-25T03:46:44.867Z,1.47
2018-08-25T03:50:47.452Z,1.23
2018-08-25T03:54:50.012Z,1.90
2018-08-25T03:58:52.592Z,1.97
2018-08-25T04:02:55.224Z,2.20
2018-08-25T04:06:57.919Z,2.33
2018-08-25T04:11:00.578Z,2.83
2018-08-25T04:15:03.243Z,3.00
2018-08-25T04:19:05.953Z,3.07
2018-08-25T04:23:08.535Z,3.23
2018-08-25T04:27:11.118Z,3.43
2018-08-25T04:31:13.772Z,3.17
2018-08-25T04:35:16.474Z,3.00
2018-08-25T04:39:19.069Z,4.30
2018-08-25T04:43:21.708Z,4.70
2018-08-25T04:47:24.280Z,4.73
2018-08-25T04:51:26.960Z,3.33
2018-08-25T04:55:29.480Z,3.60
2018-08-25T04:59:32.107Z,3.73
2018-08-25T05:03:34.660Z,3.67
2018-08-25T05:07:37.311Z,4.80
2018-08-25T05:11:39.924Z,3.80
2018-08-25T05:15:42.565Z,4.23
2018-08-25T05:19:45.195Z,4.23
2018-08-25T05:23:47.777Z,3.80
2018-08-25T05:27:50.366Z,4.10
2018-08-25T05:31:52.937Z,4.50
2018-08-25T05:35:55.512Z,4.33
2018-08-25T05:39:58.127Z,4.77
2018-08-25T05:44:00.700Z,3.67
2018-08-25T05:48:03.302Z,4.27
2018-08-25T05:52:06.013Z,4.67
2018-08-25T05:56:08.590Z,5.13
2018-08-25T06:00:11.384Z,6.00
2018-08-25T06:04:13.944Z,5.37
2018-08-25T06:08:16.499Z,5.47
2018-08-25T06:12:19.083Z,5.13
2018-08-25T06:16:21.689Z,4.60
2018-08-25T06:20:24.299Z,5.30
2018-08-25T06:24:27.047Z,5.47
2018-08-25T06:28:29.637Z,6.23
2018-08-25T06:32:32.289Z,6.00
2018-08-25T06:36:34.895Z,4.93
2018-08-25T06:40:37.455Z,6.30
2018-08-25T06:44:40.002Z,5.07
2018-08-25T06:48:42.593Z,5.13
2018-08-25T06:52:45.184Z,4.90
2018-08-25T06:56:47.863Z,5.67
2018-08-25T07:00:50.513Z,4.90
2018-08-25T07:04:53.148Z,3.20
2018-08-25T07:08:55.828Z,3.07
2018-08-25T07:12:58.495Z,3.27
2018-08-25T07:17:01.041Z,3.20
2018-08-25T07:21:03.657Z,3.20
2018-08-25T07:25:06.486Z,3.10
2018-08-25T07:29:09.148Z,3.17
2018-08-25T07:33:11.767Z,2.57
2018-08-25T07:37:14.367Z,3.17
2018-08-25T07:41:17.057Z,2.80
2018-08-25T07:45:19.715Z,2.70
2018-08-25T07:49:22.301Z,5.80
2018-08-25T07:53:24.908Z,2.70
2018-08-25T07:57:29.180Z,2.73
2018-08-25T08:01:31.832Z,3.30
2018-08-25T08:05:34.520Z,4.50
2018-08-25T08:09:37.254Z,5.00
2018-08-25T08:13:39.908Z,5.87
2018-08-25T08:17:49.404Z,4.03
2018-08-25T08:21:52.019Z,2.70
2018-08-25T08:25:54.674Z,14.23
2018-08-25T08:29:57.220Z,2.80
2018-08-25T08:33:59.809Z,3.53
2018-08-25T08:38:02.448Z,3.53
2018-08-25T08:42:05.075Z,4.37
2018-08-25T08:46:07.626Z,3.90
2018-08-25T08:50:10.661Z,4.40
2018-08-25T08:54:13.259Z,3.77
2018-08-25T08:58:16.123Z,3.87
2018-08-25T09:02:18.785Z,4.03
2018-08-25T09:06:21.395Z,3.13
2018-08-25T09:10:24.884Z,3.60
2018-08-25T09:14:27.555Z,3.63
2018-08-25T09:18:30.259Z,3.70
2018-08-25T09:22:32.844Z,3.13
2018-08-25T09:26:35.522Z,4.00
2018-08-25T09:30:38.117Z,3.53
2018-08-25T09:34:41.065Z,3.07
2018-08-25T09:38:43.835Z,3.03
2018-08-25T09:42:46.447Z,3.07
2018-08-25T09:46:49.074Z,2.40
2018-08-25T09:50:51.772Z,2.10
2018-08-25T09:54:54.483Z,2.70
2018-08-25T09:58:57.665Z,1.90
2018-08-25T10:03:00.487Z,1.60
2018-08-25T10:07:03.198Z,1.20
2018-08-25T10:11:06.059Z,4.93
2018-08-25T10:15:08.766Z,1.27
2018-08-25T10:19:11.423Z,1.30
2018-08-25T10:23:13.996Z,1.30
2018-08-25T10:27:16.644Z,0.80
2018-08-25T10:31:19.212Z,1.00
2018-08-25T10:35:21.840Z,0.63
2018-08-25T10:39:24.422Z,0.60
2018-08-25T10:43:27.047Z,0.50
2018-08-25T10:47:29.603Z,0.60
2018-08-25T10:51:32.248Z,0.80
2018-08-25T10:55:34.921Z,0.60
2018-08-25T10:59:37.575Z,0.80
2018-08-25T11:03:40.161Z,0.80
2018-08-25T11:07:42.793Z,3.10
2018-08-25T11:11:45.542Z,0.57
2018-08-25T11:15:48.504Z,0.60
2018-08-25T11:19:51.069Z,0.70
2018-08-25T11:23:53.958Z,0.70
2018-08-25T11:27:56.786Z,0.70
2018-08-25T11:31:59.396Z,0.70
2018-08-25T11:36:02.072Z,6.20
2018-08-25T11:40:04.823Z,0.80
2018-08-25T11:44:07.672Z,0.77
2018-08-25T11:48:10.248Z,0.60
2018-08-25T11:52:12.905Z,0.70
2018-08-25T11:56:15.509Z,0.87
2018-08-25T12:00:18.102Z,0.80
2018-08-25T12:04:20.669Z,0.87
2018-08-25T12:08:23.270Z,2.10
2018-08-25T12:12:25.906Z,0.80
2018-08-25T12:16:28.569Z,0.90
2018-08-25T12:20:31.132Z,0.90
2018-08-25T12:24:33.684Z,1.20
2018-08-25T12:28:36.318Z,1.60
2018-08-25T12:32:38.861Z,0.80
2018-08-25T12:36:41.445Z,0.90
2018-08-25T12:40:44.144Z,0.93
2018-08-25T12:44:46.729Z,1.30
2018-08-25T12:48:49.359Z,1.10
2018-08-25T12:52:51.873Z,1.00
2018-08-25T12:56:54.486Z,1.50
2018-08-25T13:00:57.055Z,1.37
2018-08-25T13:04:59.649Z,2.03
2018-08-25T13:09:02.577Z,1.70
2018-08-25T13:13:05.305Z,1.70
2018-08-25T13:17:07.899Z,1.80
2018-08-25T13:21:10.548Z,1.93
2018-08-25T13:25:13.085Z,0.90
2018-08-25T13:29:15.674Z,0.80
2018-08-25T13:33:18.256Z,1.07
2018-08-25T13:37:20.848Z,3.80
2018-08-25T13:41:23.567Z,1.70
2018-08-25T13:45:26.182Z,1.80
2018-08-25T13:49:28.825Z,2.53
2018-08-25T13:53:31.505Z,2.33
2018-08-25T13:57:34.285Z,2.33
2018-08-25T14:01:36.908Z,2.30
2018-08-25T14:05:39.536Z,2.30
2018-08-25T14:09:42.192Z,2.30
2018-08-25T14:13:51.499Z,2.37
2018-08-25T14:17:54.078Z,1.80
2018-08-25T14:21:56.715Z,1.37
2018-08-25T14:25:59.369Z,1.27
2018-08-25T14:30:02.017Z,1.10
2018-08-25T14:34:04.758Z,0.90
2018-08-25T14:38:07.381Z,0.93
2018-08-25T14:42:10.017Z,0.80
2018-08-25T14:46:12.700Z,3.80
2018-08-25T14:50:15.333Z,1.23
2018-08-25T14:54:18.085Z,0.80
2018-08-25T14:58:20.756Z,1.00
2018-08-25T15:02:23.356Z,1.03
2018-08-25T15:06:26.281Z,0.90
2018-08-25T15:10:29.245Z,1.20
2018-08-25T15:14:31.949Z,1.10
2018-08-25T15:18:34.666Z,1.30
2018-08-25T15:22:37.246Z,1.20
2018-08-25T15:26:39.971Z,1.23
2018-08-25T15:30:42.589Z,1.50
2018-08-25T15:34:45.210Z,3.90
2018-08-25T15:38:48.162Z,1.20
2018-08-25T15:42:50.814Z,1.73
2018-08-25T15:46:53.476Z,1.50
2018-08-25T15:50:56.130Z,1.50
2018-08-25T15:54:59.044Z,1.40
2018-08-25T15:59:01.613Z,1.43
2018-08-25T16:03:04.455Z,1.60
2018-08-25T16:07:11.687Z,1.10
2018-08-25T16:11:14.462Z,1.57
2018-08-25T16:15:17.511Z,0.77
2018-08-25T16:19:21.473Z,0.87
2018-08-25T16:23:24.486Z,0.60
2018-08-25T16:27:27.594Z,1.23
2018-08-25T16:31:36.015Z,0.40
2018-08-25T16:35:38.594Z,0.40
2018-08-25T16:39:41.444Z,0.80
2018-08-25T16:43:44.153Z,0.90
2018-08-25T16:47:46.745Z,0.50
2018-08-25T16:51:49.927Z,0.93
2018-08-25T16:55:52.595Z,0.80
2018-08-25T16:59:55.519Z,0.70
2018-08-25T17:03:59.486Z,0.73
2018-08-25T17:08:02.068Z,0.70
2018-08-25T17:12:04.715Z,0.70
2018-08-25T17:16:07.289Z,0.70
2018-08-25T17:20:09.995Z,9.63
2018-08-25T17:24:12.793Z,14.23
2018-08-25T17:28:15.393Z,1.73
2018-08-25T17:32:18.131Z,0.93
2018-08-25T17:36:20.720Z,0.80
2018-08-25T17:40:23.311Z,0.97
2018-08-25T17:44:25.968Z,1.00
2018-08-25T17:48:28.603Z,1.10
2018-08-25T17:52:31.171Z,0.60
2018-08-25T17:56:33.797Z,0.90
2018-08-25T18:00:36.468Z,0.70
2018-08-25T18:04:39.124Z,0.70
2018-08-25T18:08:41.749Z,2.60
2018-08-25T18:12:45.005Z,0.80
2018-08-25T18:16:47.719Z,0.77
2018-08-25T18:20:50.289Z,1.10
2018-08-25T18:24:52.928Z,1.00
2018-08-25T18:28:56.861Z,0.87
2018-08-25T18:32:59.709Z,1.63
2018-08-25T18:37:02.264Z,0.70
2018-08-25T18:41:04.957Z,0.90
2018-08-25T18:45:07.619Z,0.83
2018-08-25T18:49:10.797Z,0.80
2018-08-25T18:53:13.771Z,0.70
2018-08-25T18:57:17.512Z,0.90
2018-08-25T19:01:20.666Z,0.60
2018-08-25T19:05:23.279Z,0.73
2018-08-25T19:09:25.939Z,0.77
2018-08-25T19:13:28.810Z,0.87
2018-08-25T19:17:31.569Z,1.00
2018-08-25T19:21:35.003Z,0.90
2018-08-25T19:25:37.923Z,0.90
2018-08-25T19:29:40.786Z,0.97
2018-08-25T19:33:43.496Z,0.70
2018-08-25T19:37:46.401Z,0.67
2018-08-25T19:41:49.868Z,0.63
2018-08-25T19:45:52.569Z,0.97
2018-08-25T19:49:55.456Z,1.50
2018-08-25T19:53:58.126Z,0.90
2018-08-25T19:58:01.047Z,0.87
2018-08-25T20:02:04.613Z,2.13
2018-08-25T20:06:07.378Z,0.80
2018-08-25T20:10:09.996Z,0.80
2018-08-25T20:14:13.298Z,0.57
2018-08-25T20:18:15.915Z,0.80
2018-08-25T20:22:18.724Z,0.70
2018-08-25T20:26:21.426Z,0.90
2018-08-25T20:30:24.059Z,0.90
2018-08-25T20:34:26.659Z,0.90
2018-08-25T20:38:29.427Z,0.87
2018-08-25T20:42:32.169Z,0.60
2018-08-25T20:46:34.946Z,1.13
2018-08-25T20:50:37.643Z,1.20
2018-08-25T20:54:40.277Z,1.07
2018-08-25T20:58:42.880Z,1.90
2018-08-25T21:02:45.569Z,1.53
2018-08-25T21:06:48.280Z,1.90
2018-08-25T21:10:50.894Z,1.63
2018-08-25T21:14:53.511Z,1.47
2018-08-25T21:18:56.192Z,1.70
2018-08-25T21:22:58.892Z,1.60
2018-08-25T21:27:01.457Z,1.20
2018-08-25T21:31:04.681Z,1.80
2018-08-25T21:35:07.878Z,1.87
2018-08-25T21:39:12.503Z,1.90
2018-08-25T21:43:15.067Z,1.70
2018-08-25T21:47:17.689Z,2.27
2018-08-25T21:51:20.348Z,2.63
2018-08-25T21:55:22.958Z,2.50
2018-08-25T21:59:25.624Z,2.40
2018-08-25T22:03:28.443Z,2.40
2018-08-25T22:07:30.960Z,2.43
2018-08-25T22:11:33.548Z,2.70
2018-08-25T22:15:36.558Z,2.47
2018-08-25T22:19:40.119Z,2.43
2018-08-25T22:23:42.700Z,2.70
2018-08-25T22:27:45.380Z,2.43
2018-08-25T22:31:49.424Z,3.07
2018-08-25T22:35:54.150Z,3.20
2018-08-25T22:39:57.809Z,4.17
2018-08-25T22:44:00.524Z,2.93
2018-08-25T22:48:03.202Z,3.07
2018-08-25T22:52:06.065Z,3.03
2018-08-25T22:56:08.640Z,3.00
2018-08-25T23:00:11.364Z,4.20
2018-08-25T23:04:13.887Z,2.90
2018-08-25T23:08:16.507Z,3.33
2018-08-25T23:12:19.123Z,2.97
2018-08-25T23:16:21.755Z,3.13
2018-08-25T23:20:24.303Z,3.60
2018-08-25T23:24:26.885Z,3.57
2018-08-25T23:28:29.597Z,3.40
2018-08-25T23:32:32.269Z,3.30
2018-08-25T23:36:34.870Z,3.20
2018-08-25T23:40:37.483Z,3.87
2018-08-25T23:44:40.093Z,3.43
2018-08-25T23:48:42.680Z,3.60
2018-08-25T23:52:45.299Z,3.80
2018-08-25T23:56:48.174Z,3.80
